sensor_id;sensor_type;location;lat;lon;timestamp;P1;durP1;ratioP1;P2;durP2;ratioP2
1999;SDS011;1001;48.87406500;9.59633600;2022-07-29T00:00:43;15.20;;;8.70;;
1999;SDS011;1001;48.87406500;9.59633600;2022-07-29T00:03:10;9.80;;;8.83;;
1999;SDS011;1001;48.87406500;9.59633600;2022-07-29T00:05:39;11.93;;;8.40;;
1999;SDS011;1001;48.87406500;9.59633600;2022-07-29T00:08:07;10.00;;;8.13;;
1999;SDS011;1001;48.87406500;9.59633600;2022-07-29T00:10:34;8.77;;;7.60;;
1999;SDS011;1001;48.87406500;9.59633600;2022-07-29T00:13:01;9.47;;;7.37;;
1999;SDS011;1001;48.87406500;9.59633600;2022-07-29T00:15:28;8.97;;;8.00;;
1999;SDS011;1001;48.87406500;9.59633600;2022-07-29T00:17:55;8.80;;;8.00;;
1999;SDS011;1001;48.87406500;9.59633600;2022-07-29T00:20:24;9.33;;;8.43;;
1999;SDS011;1001;48.87406500;9.59633600;2022-07-29T00:22:53;9.10;;;8.30;;
1999;SDS011;1001;48.87406500;9.59633600;2022-07-29T00:25:20;11.47;;;7.90;;
1999;SDS011;1001;48.87406500;9.59633600;2022-07-29T00:27:46;9.83;;;8.97;;
1999;SDS011;1001;48.87406500;9.59633600;2022-07-29T00:30:16;9.33;;;8.37;;
1999;SDS011;1001;48.87406500;9.59633600;2022-07-29T00:32:43;9.53;;;8.73;;
1999;SDS011;1001;48.87406500;9.59633600;2022-07-29T00:35:10;9.40;;;8.57;;
1999;SDS011;1001;48.87406500;9.59633600;2022-07-29T00:37:55;13.73;;;10.67;;
1999;SDS011;1001;48.87406500;9.59633600;2022-07-29T00:40:22;9.70;;;8.77;;
1999;SDS011;1001;48.87406500;9.59633600;2022-07-29T00:42:50;11.23;;;10.03;;
1999;SDS011;1001;48.87406500;9.59633600;2022-07-29T00:45:19;9.13;;;8.33;;
1999;SDS011;1001;48.87406500;9.59633600;2022-07-29T00:47:47;10.27;;;9.23;;
1999;SDS011;1001;48.87406500;9.59633600;2022-07-29T00:50:14;8.33;;;7.53;;
1999;SDS011;1001;48.87406500;9.59633600;2022-07-29T00:52:41;8.87;;;7.97;;
1999;SDS011;1001;48.87406500;9.59633600;2022-07-29T00:55:11;7.67;;;6.87;;
1999;SDS011;1001;48.87406500;9.59633600;2022-07-29T00:57:40;9.67;;;8.57;;
1999;SDS011;1001;48.87406500;9.59633600;2022-07-29T01:00:10;7.70;;;7.03;;
1999;SDS011;1001;48.87406500;9.59633600;2022-07-29T01:02:39;8.77;;;7.03;;
1999;SDS011;1001;48.87406500;9.59633600;2022-07-29T01:05:06;6.70;;;6.00;;
1999;SDS011;1001;48.87406500;9.59633600;2022-07-29T01:07:34;7.47;;;6.60;;
1999;SDS011;1001;48.87406500;9.59633600;2022-07-29T01:10:02;7.40;;;6.70;;
1999;SDS011;1001;48.87406500;9.59633600;2022-07-29T01:12:36;6.53;;;5.93;;
1999;SDS011;1001;48.87406500;9.59633600;2022-07-29T01:15:04;6.10;;;5.60;;
1999;SDS011;1001;48.87406500;9.59633600;2022-07-29T01:17:35;7.10;;;6.40;;
1999;SDS011;1001;48.87406500;9.59633600;2022-07-29T01:20:10;7.37;;;5.43;;
1999;SDS011;1001;48.87406500;9.59633600;2022-07-29T01:31:30;5.93;;;5.40;;
1999;SDS011;1001;48.87406500;9.59633600;2022-07-29T01:34:02;5.13;;;4.73;;
1999;SDS011;1001;48.87406500;9.59633600;2022-07-29T01:36:33;5.50;;;5.03;;
1999;SDS011;1001;48.87406500;9.59633600;2022-07-29T01:39:10;6.47;;;5.37;;
1999;SDS011;1001;48.87406500;9.59633600;2022-07-29T01:41:38;5.80;;;5.30;;
1999;SDS011;1001;48.87406500;9.59633600;2022-07-29T01:44:15;5.93;;;5.37;;
1999;SDS011;1001;48.87406500;9.59633600;2022-07-29T01:46:49;6.60;;;5.47;;
1999;SDS011;1001;48.87406500;9.59633600;2022-07-29T01:49:21;6.00;;;5.13;;
1999;SDS011;1001;48.87406500;9.59633600;2022-07-29T01:51:54;5.60;;;5.20;;
1999;SDS011;1001;48.87406500;9.59633600;2022-07-29T01:54:29;7.27;;;6.33;;
1999;SDS011;1001;48.87406500;9.59633600;2022-07-29T01:57:00;5.90;;;5.40;;
1999;SDS011;1001;48.87406500;9.59633600;2022-07-29T01:59:34;6.27;;;5.67;;
1999;SDS011;1001;48.87406500;9.59633600;2022-07-29T02:02:03;7.40;;;5.50;;
1999;SDS011;1001;48.87406500;9.59633600;2022-07-29T02:04:33;5.50;;;5.00;;
1999;SDS011;1001;48.87406500;9.59633600;2022-07-29T02:07:03;6.43;;;5.83;;
1999;SDS011;1001;48.87406500;9.59633600;2022-07-29T02:09:35;6.30;;;5.70;;
1999;SDS011;1001;48.87406500;9.59633600;2022-07-29T02:12:06;5.30;;;4.80;;
1999;SDS011;1001;48.87406500;9.59633600;2022-07-29T02:14:37;6.00;;;5.50;;
1999;SDS011;1001;48.87406500;9.59633600;2022-07-29T02:17:06;8.97;;;4.97;;
1999;SDS011;1001;48.87406500;9.59633600;2022-07-29T02:19:34;6.30;;;5.70;;
1999;SDS011;1001;48.87406500;9.59633600;2022-07-29T02:22:03;6.00;;;5.40;;
1999;SDS011;1001;48.87406500;9.59633600;2022-07-29T02:24:32;6.80;;;6.20;;
1999;SDS011;1001;48.87406500;9.59633600;2022-07-29T02:27:02;7.70;;;6.97;;
1999;SDS011;1001;48.87406500;9.59633600;2022-07-29T02:29:30;7.33;;;5.87;;
1999;SDS011;1001;48.87406500;9.59633600;2022-07-29T02:32:02;7.70;;;6.73;;
1999;SDS011;1001;48.87406500;9.59633600;2022-07-29T02:34:30;5.07;;;4.67;;
1999;SDS011;1001;48.87406500;9.59633600;2022-07-29T02:36:58;7.27;;;5.60;;
1999;SDS011;1001;48.87406500;9.59633600;2022-07-29T02:39:25;5.47;;;5.07;;
1999;SDS011;1001;48.87406500;9.59633600;2022-07-29T02:41:55;6.07;;;5.47;;
1999;SDS011;1001;48.87406500;9.59633600;2022-07-29T02:44:27;5.90;;;5.30;;
1999;SDS011;1001;48.87406500;9.59633600;2022-07-29T02:46:55;6.30;;;5.80;;
1999;SDS011;1001;48.87406500;9.59633600;2022-07-29T02:49:32;6.57;;;5.20;;
1999;SDS011;1001;48.87406500;9.59633600;2022-07-29T02:52:03;5.80;;;5.10;;
1999;SDS011;1001;48.87406500;9.59633600;2022-07-29T02:54:37;5.10;;;4.70;;
1999;SDS011;1001;48.87406500;9.59633600;2022-07-29T02:57:11;5.90;;;5.30;;
1999;SDS011;1001;48.87406500;9.59633600;2022-07-29T02:59:45;6.67;;;6.07;;
1999;SDS011;1001;48.87406500;9.59633600;2022-07-29T03:02:14;7.00;;;5.70;;
1999;SDS011;1001;48.87406500;9.59633600;2022-07-29T03:04:43;7.10;;;5.47;;
1999;SDS011;1001;48.87406500;9.59633600;2022-07-29T03:07:14;6.40;;;5.80;;
1999;SDS011;1001;48.87406500;9.59633600;2022-07-29T03:09:44;6.73;;;5.47;;
1999;SDS011;1001;48.87406500;9.59633600;2022-07-29T03:12:12;5.63;;;5.13;;
1999;SDS011;1001;48.87406500;9.59633600;2022-07-29T03:14:40;7.60;;;6.37;;
1999;SDS011;1001;48.87406500;9.59633600;2022-07-29T03:17:08;5.67;;;5.23;;
1999;SDS011;1001;48.87406500;9.59633600;2022-07-29T03:19:36;5.83;;;5.23;;
1999;SDS011;1001;48.87406500;9.59633600;2022-07-29T03:22:04;7.03;;;5.17;;
1999;SDS011;1001;48.87406500;9.59633600;2022-07-29T03:24:31;6.30;;;5.70;;
1999;SDS011;1001;48.87406500;9.59633600;2022-07-29T03:27:01;6.03;;;5.53;;
1999;SDS011;1001;48.87406500;9.59633600;2022-07-29T03:29:29;6.37;;;5.83;;
1999;SDS011;1001;48.87406500;9.59633600;2022-07-29T03:31:55;7.40;;;6.50;;
1999;SDS011;1001;48.87406500;9.59633600;2022-07-29T03:34:22;7.37;;;6.43;;
1999;SDS011;1001;48.87406500;9.59633600;2022-07-29T03:36:49;5.23;;;4.73;;
1999;SDS011;1001;48.87406500;9.59633600;2022-07-29T03:39:19;4.63;;;4.23;;
1999;SDS011;1001;48.87406500;9.59633600;2022-07-29T03:41:49;4.40;;;4.00;;
1999;SDS011;1001;48.87406500;9.59633600;2022-07-29T03:44:20;4.50;;;4.10;;
1999;SDS011;1001;48.87406500;9.59633600;2022-07-29T03:46:48;5.60;;;4.83;;
1999;SDS011;1001;48.87406500;9.59633600;2022-07-29T03:49:16;5.30;;;4.73;;
1999;SDS011;1001;48.87406500;9.59633600;2022-07-29T03:51:45;6.73;;;4.93;;
1999;SDS011;1001;48.87406500;9.59633600;2022-07-29T03:54:12;5.00;;;4.50;;
1999;SDS011;1001;48.87406500;9.59633600;2022-07-29T03:56:42;4.93;;;4.43;;
1999;SDS011;1001;48.87406500;9.59633600;2022-07-29T03:59:12;4.43;;;3.73;;
1999;SDS011;1001;48.87406500;9.59633600;2022-07-29T04:01:41;4.30;;;3.90;;
1999;SDS011;1001;48.87406500;9.59633600;2022-07-29T04:04:08;5.10;;;4.10;;
1999;SDS011;1001;48.87406500;9.59633600;2022-07-29T04:06:41;4.73;;;3.83;;
1999;SDS011;1001;48.87406500;9.59633600;2022-07-29T04:09:09;4.93;;;3.80;;
1999;SDS011;1001;48.87406500;9.59633600;2022-07-29T04:11:41;4.90;;;4.50;;
1999;SDS011;1001;48.87406500;9.59633600;2022-07-29T04:14:08;4.30;;;3.70;;
1999;SDS011;1001;48.87406500;9.59633600;2022-07-29T04:16:34;3.90;;;3.60;;
1999;SDS011;1001;48.87406500;9.59633600;2022-07-29T04:19:02;3.60;;;3.23;;
1999;SDS011;1001;48.87406500;9.59633600;2022-07-29T04:21:29;4.30;;;3.90;;
1999;SDS011;1001;48.87406500;9.59633600;2022-07-29T04:23:56;4.27;;;3.87;;
1999;SDS011;1001;48.87406500;9.59633600;2022-07-29T04:26:22;4.50;;;4.10;;
1999;SDS011;1001;48.87406500;9.59633600;2022-07-29T04:28:51;4.43;;;3.97;;
1999;SDS011;1001;48.87406500;9.59633600;2022-07-29T04:31:17;4.33;;;3.90;;
1999;SDS011;1001;48.87406500;9.59633600;2022-07-29T04:33:44;5.20;;;3.83;;
1999;SDS011;1001;48.87406500;9.59633600;2022-07-29T04:36:11;3.80;;;3.10;;
1999;SDS011;1001;48.87406500;9.59633600;2022-07-29T04:38:39;5.03;;;3.90;;
1999;SDS011;1001;48.87406500;9.59633600;2022-07-29T04:41:06;4.30;;;3.90;;
1999;SDS011;1001;48.87406500;9.59633600;2022-07-29T04:43:36;4.67;;;3.30;;
1999;SDS011;1001;48.87406500;9.59633600;2022-07-29T04:46:05;3.13;;;2.83;;
1999;SDS011;1001;48.87406500;9.59633600;2022-07-29T04:48:35;3.40;;;3.10;;
1999;SDS011;1001;48.87406500;9.59633600;2022-07-29T04:51:02;3.63;;;3.30;;
1999;SDS011;1001;48.87406500;9.59633600;2022-07-29T04:53:29;3.27;;;2.97;;
1999;SDS011;1001;48.87406500;9.59633600;2022-07-29T04:55:55;3.90;;;3.53;;
1999;SDS011;1001;48.87406500;9.59633600;2022-07-29T04:58:22;3.30;;;3.10;;
1999;SDS011;1001;48.87406500;9.59633600;2022-07-29T05:00:49;3.23;;;3.03;;
1999;SDS011;1001;48.87406500;9.59633600;2022-07-29T05:03:18;3.60;;;3.30;;
1999;SDS011;1001;48.87406500;9.59633600;2022-07-29T05:05:44;3.80;;;3.50;;
1999;SDS011;1001;48.87406500;9.59633600;2022-07-29T05:08:11;5.50;;;3.93;;
1999;SDS011;1001;48.87406500;9.59633600;2022-07-29T05:10:38;4.20;;;3.80;;
1999;SDS011;1001;48.87406500;9.59633600;2022-07-29T05:13:05;4.00;;;3.70;;
1999;SDS011;1001;48.87406500;9.59633600;2022-07-29T05:15:32;4.00;;;3.70;;
1999;SDS011;1001;48.87406500;9.59633600;2022-07-29T05:17:59;4.33;;;3.97;;
1999;SDS011;1001;48.87406500;9.59633600;2022-07-29T05:20:28;3.57;;;3.27;;
1999;SDS011;1001;48.87406500;9.59633600;2022-07-29T05:22:55;4.47;;;4.13;;
1999;SDS011;1001;48.87406500;9.59633600;2022-07-29T05:25:22;4.77;;;4.27;;
1999;SDS011;1001;48.87406500;9.59633600;2022-07-29T05:27:52;4.30;;;3.90;;
1999;SDS011;1001;48.87406500;9.59633600;2022-07-29T05:30:22;4.90;;;4.50;;
1999;SDS011;1001;48.87406500;9.59633600;2022-07-29T05:32:49;6.50;;;5.40;;
1999;SDS011;1001;48.87406500;9.59633600;2022-07-29T05:35:16;5.00;;;4.60;;
1999;SDS011;1001;48.87406500;9.59633600;2022-07-29T05:37:44;5.20;;;4.70;;
1999;SDS011;1001;48.87406500;9.59633600;2022-07-29T05:40:11;5.00;;;4.60;;
1999;SDS011;1001;48.87406500;9.59633600;2022-07-29T05:42:37;4.13;;;3.83;;
1999;SDS011;1001;48.87406500;9.59633600;2022-07-29T05:45:05;6.13;;;4.80;;
1999;SDS011;1001;48.87406500;9.59633600;2022-07-29T05:47:32;5.10;;;4.70;;
1999;SDS011;1001;48.87406500;9.59633600;2022-07-29T05:49:59;6.37;;;5.03;;
1999;SDS011;1001;48.87406500;9.59633600;2022-07-29T05:52:25;5.37;;;4.60;;
1999;SDS011;1001;48.87406500;9.59633600;2022-07-29T05:54:54;7.10;;;5.00;;
1999;SDS011;1001;48.87406500;9.59633600;2022-07-29T05:57:22;5.70;;;5.10;;
1999;SDS011;1001;48.87406500;9.59633600;2022-07-29T05:59:50;5.10;;;4.60;;
1999;SDS011;1001;48.87406500;9.59633600;2022-07-29T06:02:17;5.53;;;4.70;;
1999;SDS011;1001;48.87406500;9.59633600;2022-07-29T06:04:44;4.90;;;4.50;;
1999;SDS011;1001;48.87406500;9.59633600;2022-07-29T06:07:11;4.67;;;4.20;;
1999;SDS011;1001;48.87406500;9.59633600;2022-07-29T06:09:38;5.30;;;4.77;;
1999;SDS011;1001;48.87406500;9.59633600;2022-07-29T06:12:06;6.10;;;5.50;;
1999;SDS011;1001;48.87406500;9.59633600;2022-07-29T06:14:34;5.90;;;5.40;;
1999;SDS011;1001;48.87406500;9.59633600;2022-07-29T06:17:02;4.03;;;3.73;;
1999;SDS011;1001;48.87406500;9.59633600;2022-07-29T06:19:29;5.83;;;5.03;;
1999;SDS011;1001;48.87406500;9.59633600;2022-07-29T06:21:56;8.80;;;4.70;;
1999;SDS011;1001;48.87406500;9.59633600;2022-07-29T06:24:23;5.20;;;4.77;;
1999;SDS011;1001;48.87406500;9.59633600;2022-07-29T06:26:50;4.13;;;3.73;;
1999;SDS011;1001;48.87406500;9.59633600;2022-07-29T06:29:18;4.40;;;3.57;;
1999;SDS011;1001;48.87406500;9.59633600;2022-07-29T06:31:45;3.97;;;3.67;;
1999;SDS011;1001;48.87406500;9.59633600;2022-07-29T06:34:12;4.20;;;3.80;;
1999;SDS011;1001;48.87406500;9.59633600;2022-07-29T06:36:38;4.70;;;3.90;;
1999;SDS011;1001;48.87406500;9.59633600;2022-07-29T06:39:06;4.70;;;4.07;;
1999;SDS011;1001;48.87406500;9.59633600;2022-07-29T06:41:33;4.17;;;3.77;;
1999;SDS011;1001;48.87406500;9.59633600;2022-07-29T06:44:00;6.10;;;4.60;;
1999;SDS011;1001;48.87406500;9.59633600;2022-07-29T06:46:28;4.53;;;4.07;;
1999;SDS011;1001;48.87406500;9.59633600;2022-07-29T06:48:55;6.10;;;4.57;;
1999;SDS011;1001;48.87406500;9.59633600;2022-07-29T06:51:22;6.13;;;4.00;;
1999;SDS011;1001;48.87406500;9.59633600;2022-07-29T06:53:50;4.30;;;3.57;;
1999;SDS011;1001;48.87406500;9.59633600;2022-07-29T06:56:19;4.60;;;4.20;;
1999;SDS011;1001;48.87406500;9.59633600;2022-07-29T06:58:46;4.23;;;3.30;;
1999;SDS011;1001;48.87406500;9.59633600;2022-07-29T07:01:13;4.13;;;3.80;;
1999;SDS011;1001;48.87406500;9.59633600;2022-07-29T07:03:41;4.50;;;4.10;;
1999;SDS011;1001;48.87406500;9.59633600;2022-07-29T07:06:08;4.10;;;3.80;;
1999;SDS011;1001;48.87406500;9.59633600;2022-07-29T07:08:35;4.40;;;4.10;;
1999;SDS011;1001;48.87406500;9.59633600;2022-07-29T07:11:01;4.47;;;3.37;;
1999;SDS011;1001;48.87406500;9.59633600;2022-07-29T07:13:29;5.90;;;3.70;;
1999;SDS011;1001;48.87406500;9.59633600;2022-07-29T07:15:59;4.03;;;3.63;;
1999;SDS011;1001;48.87406500;9.59633600;2022-07-29T07:18:26;3.90;;;3.20;;
1999;SDS011;1001;48.87406500;9.59633600;2022-07-29T07:20:55;3.30;;;3.00;;
1999;SDS011;1001;48.87406500;9.59633600;2022-07-29T07:23:22;3.60;;;3.30;;
1999;SDS011;1001;48.87406500;9.59633600;2022-07-29T07:25:49;3.63;;;3.30;;
1999;SDS011;1001;48.87406500;9.59633600;2022-07-29T07:28:16;4.07;;;3.77;;
1999;SDS011;1001;48.87406500;9.59633600;2022-07-29T07:30:44;6.83;;;3.33;;
1999;SDS011;1001;48.87406500;9.59633600;2022-07-29T07:33:13;4.30;;;3.20;;
1999;SDS011;1001;48.87406500;9.59633600;2022-07-29T07:35:40;3.30;;;2.80;;
1999;SDS011;1001;48.87406500;9.59633600;2022-07-29T07:38:10;2.70;;;2.50;;
1999;SDS011;1001;48.87406500;9.59633600;2022-07-29T07:40:38;3.37;;;3.13;;
1999;SDS011;1001;48.87406500;9.59633600;2022-07-29T07:43:04;5.03;;;3.40;;
1999;SDS011;1001;48.87406500;9.59633600;2022-07-29T07:45:33;3.67;;;3.40;;
1999;SDS011;1001;48.87406500;9.59633600;2022-07-29T07:48:02;4.17;;;2.73;;
1999;SDS011;1001;48.87406500;9.59633600;2022-07-29T07:50:29;3.30;;;3.07;;
1999;SDS011;1001;48.87406500;9.59633600;2022-07-29T07:52:56;2.93;;;2.73;;
1999;SDS011;1001;48.87406500;9.59633600;2022-07-29T07:55:25;3.93;;;3.17;;
1999;SDS011;1001;48.87406500;9.59633600;2022-07-29T07:57:52;3.63;;;3.23;;
1999;SDS011;1001;48.87406500;9.59633600;2022-07-29T08:00:19;3.90;;;3.60;;
1999;SDS011;1001;48.87406500;9.59633600;2022-07-29T08:02:46;3.67;;;3.30;;
1999;SDS011;1001;48.87406500;9.59633600;2022-07-29T08:05:13;4.53;;;4.13;;
1999;SDS011;1001;48.87406500;9.59633600;2022-07-29T08:07:42;4.40;;;3.40;;
1999;SDS011;1001;48.87406500;9.59633600;2022-07-29T08:10:09;4.07;;;3.50;;
1999;SDS011;1001;48.87406500;9.59633600;2022-07-29T08:12:38;6.93;;;3.83;;
1999;SDS011;1001;48.87406500;9.59633600;2022-07-29T08:15:05;3.73;;;3.20;;
1999;SDS011;1001;48.87406500;9.59633600;2022-07-29T08:17:33;4.30;;;3.53;;
1999;SDS011;1001;48.87406500;9.59633600;2022-07-29T08:20:00;4.03;;;3.50;;
1999;SDS011;1001;48.87406500;9.59633600;2022-07-29T08:22:27;4.00;;;3.60;;
1999;SDS011;1001;48.87406500;9.59633600;2022-07-29T08:24:55;5.53;;;3.70;;
1999;SDS011;1001;48.87406500;9.59633600;2022-07-29T08:27:22;3.63;;;3.33;;
1999;SDS011;1001;48.87406500;9.59633600;2022-07-29T08:29:52;6.57;;;4.20;;
1999;SDS011;1001;48.87406500;9.59633600;2022-07-29T08:32:20;4.27;;;3.87;;
1999;SDS011;1001;48.87406500;9.59633600;2022-07-29T08:34:47;4.10;;;3.80;;
1999;SDS011;1001;48.87406500;9.59633600;2022-07-29T08:37:14;4.00;;;3.60;;
1999;SDS011;1001;48.87406500;9.59633600;2022-07-29T08:39:41;4.40;;;4.00;;
1999;SDS011;1001;48.87406500;9.59633600;2022-07-29T08:42:10;3.97;;;3.63;;
1999;SDS011;1001;48.87406500;9.59633600;2022-07-29T08:44:38;6.77;;;4.10;;
1999;SDS011;1001;48.87406500;9.59633600;2022-07-29T08:47:06;3.90;;;3.60;;
1999;SDS011;1001;48.87406500;9.59633600;2022-07-29T08:49:34;4.03;;;3.50;;
1999;SDS011;1001;48.87406500;9.59633600;2022-07-29T08:52:01;4.30;;;3.90;;
1999;SDS011;1001;48.87406500;9.59633600;2022-07-29T08:54:29;4.33;;;3.93;;
1999;SDS011;1001;48.87406500;9.59633600;2022-07-29T08:56:56;4.77;;;3.60;;
1999;SDS011;1001;48.87406500;9.59633600;2022-07-29T08:59:27;3.97;;;3.57;;
1999;SDS011;1001;48.87406500;9.59633600;2022-07-29T09:01:56;3.70;;;3.30;;
1999;SDS011;1001;48.87406500;9.59633600;2022-07-29T09:04:26;3.87;;;3.57;;
1999;SDS011;1001;48.87406500;9.59633600;2022-07-29T09:06:56;5.07;;;4.00;;
1999;SDS011;1001;48.87406500;9.59633600;2022-07-29T09:09:26;4.33;;;3.93;;
1999;SDS011;1001;48.87406500;9.59633600;2022-07-29T09:11:54;4.60;;;4.20;;
1999;SDS011;1001;48.87406500;9.59633600;2022-07-29T09:14:22;4.83;;;4.43;;
1999;SDS011;1001;48.87406500;9.59633600;2022-07-29T09:16:50;4.20;;;3.80;;
1999;SDS011;1001;48.87406500;9.59633600;2022-07-29T09:19:26;4.83;;;4.20;;
1999;SDS011;1001;48.87406500;9.59633600;2022-07-29T09:21:55;5.80;;;4.10;;
1999;SDS011;1001;48.87406500;9.59633600;2022-07-29T09:24:37;4.97;;;4.47;;
1999;SDS011;1001;48.87406500;9.59633600;2022-07-29T09:27:18;4.80;;;4.37;;
1999;SDS011;1001;48.87406500;9.59633600;2022-07-29T09:29:47;4.13;;;3.83;;
1999;SDS011;1001;48.87406500;9.59633600;2022-07-29T09:32:21;4.43;;;4.10;;
1999;SDS011;1001;48.87406500;9.59633600;2022-07-29T09:34:49;4.00;;;3.60;;
1999;SDS011;1001;48.87406500;9.59633600;2022-07-29T09:37:25;5.80;;;4.10;;
1999;SDS011;1001;48.87406500;9.59633600;2022-07-29T09:39:52;5.07;;;4.07;;
1999;SDS011;1001;48.87406500;9.59633600;2022-07-29T09:42:27;9.53;;;4.40;;
1999;SDS011;1001;48.87406500;9.59633600;2022-07-29T09:44:54;4.30;;;3.70;;
1999;SDS011;1001;48.87406500;9.59633600;2022-07-29T09:47:21;5.07;;;4.67;;
1999;SDS011;1001;48.87406500;9.59633600;2022-07-29T09:49:53;5.97;;;4.87;;
1999;SDS011;1001;48.87406500;9.59633600;2022-07-29T09:52:23;5.10;;;4.70;;
1999;SDS011;1001;48.87406500;9.59633600;2022-07-29T09:54:50;3.87;;;3.67;;
1999;SDS011;1001;48.87406500;9.59633600;2022-07-29T09:57:22;5.03;;;4.53;;
1999;SDS011;1001;48.87406500;9.59633600;2022-07-29T09:59:57;4.83;;;4.30;;
1999;SDS011;1001;48.87406500;9.59633600;2022-07-29T10:02:28;5.23;;;4.63;;
1999;SDS011;1001;48.87406500;9.59633600;2022-07-29T10:04:58;5.17;;;4.77;;
1999;SDS011;1001;48.87406500;9.59633600;2022-07-29T10:07:25;5.20;;;4.80;;
1999;SDS011;1001;48.87406500;9.59633600;2022-07-29T10:09:53;6.10;;;5.50;;
1999;SDS011;1001;48.87406500;9.59633600;2022-07-29T10:12:21;5.17;;;3.93;;
1999;SDS011;1001;48.87406500;9.59633600;2022-07-29T10:14:48;5.03;;;4.37;;
1999;SDS011;1001;48.87406500;9.59633600;2022-07-29T10:17:16;4.73;;;4.20;;
1999;SDS011;1001;48.87406500;9.59633600;2022-07-29T10:19:44;4.23;;;3.93;;
1999;SDS011;1001;48.87406500;9.59633600;2022-07-29T10:22:13;6.17;;;5.07;;
1999;SDS011;1001;48.87406500;9.59633600;2022-07-29T10:24:40;4.90;;;4.47;;
1999;SDS011;1001;48.87406500;9.59633600;2022-07-29T10:27:07;5.63;;;4.60;;
1999;SDS011;1001;48.87406500;9.59633600;2022-07-29T10:29:35;5.10;;;4.63;;
1999;SDS011;1001;48.87406500;9.59633600;2022-07-29T10:32:24;5.77;;;4.47;;
1999;SDS011;1001;48.87406500;9.59633600;2022-07-29T10:35:10;8.20;;;5.00;;
1999;SDS011;1001;48.87406500;9.59633600;2022-07-29T10:41:05;4.90;;;4.20;;
1999;SDS011;1001;48.87406500;9.59633600;2022-07-29T10:43:55;5.13;;;4.70;;
1999;SDS011;1001;48.87406500;9.59633600;2022-07-29T10:46:25;5.80;;;5.00;;
1999;SDS011;1001;48.87406500;9.59633600;2022-07-29T10:54:39;5.20;;;4.70;;
1999;SDS011;1001;48.87406500;9.59633600;2022-07-29T11:02:54;5.90;;;5.30;;
1999;SDS011;1001;48.87406500;9.59633600;2022-07-29T11:05:23;6.20;;;4.87;;
1999;SDS011;1001;48.87406500;9.59633600;2022-07-29T11:10:48;5.03;;;4.53;;
1999;SDS011;1001;48.87406500;9.59633600;2022-07-29T11:16:20;7.53;;;5.37;;
1999;SDS011;1001;48.87406500;9.59633600;2022-07-29T11:21:47;5.43;;;4.93;;
1999;SDS011;1001;48.87406500;9.59633600;2022-07-29T11:24:16;5.97;;;4.30;;
1999;SDS011;1001;48.87406500;9.59633600;2022-07-29T11:29:53;5.33;;;4.83;;
1999;SDS011;1001;48.87406500;9.59633600;2022-07-29T11:32:21;5.80;;;4.93;;
1999;SDS011;1001;48.87406500;9.59633600;2022-07-29T11:35:13;5.13;;;4.63;;
1999;SDS011;1001;48.87406500;9.59633600;2022-07-29T11:37:42;6.10;;;5.60;;
1999;SDS011;1001;48.87406500;9.59633600;2022-07-29T11:40:13;5.57;;;4.83;;
1999;SDS011;1001;48.87406500;9.59633600;2022-07-29T11:42:46;8.73;;;5.23;;
1999;SDS011;1001;48.87406500;9.59633600;2022-07-29T11:45:14;6.33;;;5.73;;
1999;SDS011;1001;48.87406500;9.59633600;2022-07-29T11:47:49;5.60;;;5.10;;
1999;SDS011;1001;48.87406500;9.59633600;2022-07-29T11:50:18;5.90;;;5.40;;
1999;SDS011;1001;48.87406500;9.59633600;2022-07-29T11:52:55;6.90;;;5.90;;
1999;SDS011;1001;48.87406500;9.59633600;2022-07-29T11:55:22;6.10;;;5.60;;
1999;SDS011;1001;48.87406500;9.59633600;2022-07-29T11:57:52;8.53;;;5.70;;
1999;SDS011;1001;48.87406500;9.59633600;2022-07-29T12:00:24;7.90;;;7.10;;
1999;SDS011;1001;48.87406500;9.59633600;2022-07-29T12:02:52;7.17;;;6.67;;
1999;SDS011;1001;48.87406500;9.59633600;2022-07-29T12:05:20;8.33;;;6.00;;
1999;SDS011;1001;48.87406500;9.59633600;2022-07-29T12:07:50;8.10;;;6.47;;
1999;SDS011;1001;48.87406500;9.59633600;2022-07-29T12:10:17;9.60;;;6.83;;
1999;SDS011;1001;48.87406500;9.59633600;2022-07-29T12:12:43;8.13;;;6.07;;
1999;SDS011;1001;48.87406500;9.59633600;2022-07-29T12:15:19;7.80;;;7.10;;
1999;SDS011;1001;48.87406500;9.59633600;2022-07-29T12:17:46;11.90;;;7.30;;
1999;SDS011;1001;48.87406500;9.59633600;2022-07-29T12:20:21;7.80;;;7.00;;
1999;SDS011;1001;48.87406500;9.59633600;2022-07-29T12:22:49;11.27;;;8.80;;
1999;SDS011;1001;48.87406500;9.59633600;2022-07-29T12:25:18;9.77;;;8.73;;
1999;SDS011;1001;48.87406500;9.59633600;2022-07-29T12:27:46;11.43;;;8.97;;
1999;SDS011;1001;48.87406500;9.59633600;2022-07-29T12:30:15;9.30;;;8.50;;
1999;SDS011;1001;48.87406500;9.59633600;2022-07-29T12:32:43;10.23;;;9.27;;
1999;SDS011;1001;48.87406500;9.59633600;2022-07-29T12:35:11;9.77;;;8.97;;
1999;SDS011;1001;48.87406500;9.59633600;2022-07-29T12:37:40;10.53;;;9.53;;
1999;SDS011;1001;48.87406500;9.59633600;2022-07-29T12:40:09;10.00;;;9.07;;
1999;SDS011;1001;48.87406500;9.59633600;2022-07-29T12:42:37;12.30;;;10.43;;
1999;SDS011;1001;48.87406500;9.59633600;2022-07-29T12:45:07;12.43;;;11.43;;
1999;SDS011;1001;48.87406500;9.59633600;2022-07-29T12:50:20;12.40;;;11.30;;
1999;SDS011;1001;48.87406500;9.59633600;2022-07-29T12:52:47;13.20;;;12.03;;
1999;SDS011;1001;48.87406500;9.59633600;2022-07-29T12:55:14;12.90;;;11.70;;
1999;SDS011;1001;48.87406500;9.59633600;2022-07-29T12:57:44;12.00;;;11.00;;
1999;SDS011;1001;48.87406500;9.59633600;2022-07-29T13:00:16;19.03;;;12.50;;
1999;SDS011;1001;48.87406500;9.59633600;2022-07-29T13:02:54;12.80;;;11.50;;
1999;SDS011;1001;48.87406500;9.59633600;2022-07-29T13:05:23;12.40;;;11.20;;
1999;SDS011;1001;48.87406500;9.59633600;2022-07-29T13:07:50;7.93;;;6.80;;
1999;SDS011;1001;48.87406500;9.59633600;2022-07-29T13:10:18;7.40;;;6.80;;
1999;SDS011;1001;48.87406500;9.59633600;2022-07-29T13:13:06;6.47;;;5.83;;
1999;SDS011;1001;48.87406500;9.59633600;2022-07-29T13:15:38;7.00;;;6.27;;
1999;SDS011;1001;48.87406500;9.59633600;2022-07-29T13:20:57;5.60;;;5.10;;
1999;SDS011;1001;48.87406500;9.59633600;2022-07-29T13:23:37;4.90;;;4.40;;
1999;SDS011;1001;48.87406500;9.59633600;2022-07-29T13:26:04;5.50;;;4.90;;
1999;SDS011;1001;48.87406500;9.59633600;2022-07-29T13:28:34;4.23;;;3.90;;
1999;SDS011;1001;48.87406500;9.59633600;2022-07-29T13:31:01;4.80;;;4.00;;
1999;SDS011;1001;48.87406500;9.59633600;2022-07-29T13:33:29;4.80;;;4.40;;
1999;SDS011;1001;48.87406500;9.59633600;2022-07-29T13:35:57;3.97;;;3.67;;
1999;SDS011;1001;48.87406500;9.59633600;2022-07-29T13:38:24;6.67;;;4.57;;
1999;SDS011;1001;48.87406500;9.59633600;2022-07-29T13:40:53;5.00;;;4.60;;
1999;SDS011;1001;48.87406500;9.59633600;2022-07-29T13:43:22;4.30;;;3.70;;
1999;SDS011;1001;48.87406500;9.59633600;2022-07-29T13:45:51;4.53;;;4.13;;
1999;SDS011;1001;48.87406500;9.59633600;2022-07-29T13:48:18;4.80;;;4.50;;
1999;SDS011;1001;48.87406500;9.59633600;2022-07-29T13:50:51;5.00;;;4.50;;
1999;SDS011;1001;48.87406500;9.59633600;2022-07-29T13:53:19;4.13;;;3.83;;
1999;SDS011;1001;48.87406500;9.59633600;2022-07-29T13:55:47;4.40;;;3.47;;
1999;SDS011;1001;48.87406500;9.59633600;2022-07-29T13:58:16;4.07;;;3.77;;
1999;SDS011;1001;48.87406500;9.59633600;2022-07-29T14:00:43;4.00;;;3.70;;